Time;durP1;ratioP1;P1;durP2;ratioP2;P2;SDS_P1;SDS_P2;PMS_P1;PMS_P2;Temp;Humidity;BMP_temperature;BMP_pressure;BME280_temperature;BME280_humidity;BME280_pressure;Samples;Min_cycle;Max_cycle;Signal;HPM_P1;HPM_P2
2023/05/08 00:00:24;;;;;;;6.13;5.73;;;16.00;99.90;;;;;;6143318;23;20437;-72
2023/05/08 00:02:51;;;;;;;6.43;5.93;;;15.90;99.90;;;;;;6146473;23;20447;-71
2023/05/08 00:05:20;;;;;;;6.27;5.87;;;15.80;99.90;;;;;;6146717;23;21034;-71
2023/05/08 00:07:50;;;;;;;6.73;6.17;;;15.70;99.90;;;;;;6149503;23;20453;-71
2023/05/08 00:10:17;;;;;;;6.80;6.30;;;15.50;99.90;;;;;;6146143;23;20498;-71
2023/05/08 00:12:44;;;;;;;6.47;6.07;;;15.40;99.90;;;;;;6147749;23;20457;-71
2023/05/08 00:15:11;;;;;;;6.40;6.00;;;15.40;99.90;;;;;;6145817;23;20443;-72
2023/05/08 00:17:38;;;;;;;6.80;6.30;;;15.30;99.90;;;;;;6142741;23;21018;-72
2023/05/08 00:20:07;;;;;;;6.47;5.93;;;15.30;99.90;;;;;;6148524;23;20448;-72
2023/05/08 00:22:34;;;;;;;7.57;6.97;;;15.30;99.90;;;;;;6135647;23;20486;-71
2023/05/08 00:25:04;;;;;;;7.17;6.67;;;15.30;99.90;;;;;;6141717;23;20448;-71
2023/05/08 00:27:31;;;;;;;7.60;7.00;;;15.30;99.90;;;;;;6147661;23;20471;-72
2023/05/08 00:29:59;;;;;;;6.70;6.20;;;15.20;99.90;;;;;;6146569;23;20443;-71
2023/05/08 00:32:26;;;;;;;6.40;5.90;;;15.20;99.90;;;;;;6144713;23;21026;-71
2023/05/08 00:34:53;;;;;;;7.67;7.00;;;15.20;99.90;;;;;;6145503;23;20481;-70
2023/05/08 00:37:20;;;;;;;6.50;6.00;;;15.50;99.90;;;;;;6148576;23;20436;-70
2023/05/08 00:39:48;;;;;;;7.43;6.90;;;15.20;99.90;;;;;;6145187;23;20962;-70
2023/05/08 00:42:16;;;;;;;7.93;7.43;;;15.30;99.90;;;;;;6148545;23;20858;-70
2023/05/08 00:44:44;;;;;;;7.60;7.10;;;15.20;99.90;;;;;;6146532;23;20513;-70
2023/05/08 00:47:11;;;;;;;8.57;7.97;;;15.20;99.90;;;;;;6146016;23;20885;-70
2023/05/08 00:49:39;;;;;;;7.10;6.60;;;15.20;99.90;;;;;;6136282;23;20464;-71
2023/05/08 00:52:07;;;;;;;7.30;6.80;;;15.20;99.90;;;;;;6147100;23;20539;-70
2023/05/08 00:54:36;;;;;;;7.27;6.70;;;15.20;99.90;;;;;;6144290;23;20476;-71
2023/05/08 00:57:06;;;;;;;7.90;7.37;;;15.30;99.90;;;;;;6145658;23;20898;-71
2023/05/08 00:59:35;;;;;;;7.50;7.00;;;15.30;99.90;;;;;;6142463;23;20773;-70
2023/05/08 01:02:03;;;;;;;7.57;6.97;;;15.30;99.90;;;;;;6144423;23;20540;-71
2023/05/08 01:04:31;;;;;;;7.60;7.10;;;15.20;99.90;;;;;;6146399;23;20808;-71
2023/05/08 01:06:58;;;;;;;7.40;6.87;;;15.30;99.90;;;;;;6137976;23;20939;-70
2023/05/08 01:09:26;;;;;;;6.93;6.50;;;15.20;99.90;;;;;;6147585;23;21093;-70
2023/05/08 01:12:03;;;;;;;7.30;6.80;;;15.30;99.90;;;;;;6133427;23;20468;-70
2023/05/08 01:14:42;;;;;;;8.17;7.57;;;15.30;99.90;;;;;;6140450;23;20460;-71
2023/05/08 01:17:14;;;;;;;7.23;6.70;;;15.30;99.90;;;;;;6127626;23;20673;-71
2023/05/08 01:20:07;;;;;;;7.90;7.23;;;15.30;99.90;;;;;;6142871;23;20468;-71
2023/05/08 01:22:53;;;;;;;7.90;7.40;;;15.40;99.90;;;;;;6142087;23;20501;-71
2023/05/08 01:26:01;;;;;;;7.40;6.80;;;15.40;99.90;;;;;;6144407;23;20608;-71
2023/05/08 01:29:03;;;;;;;7.50;7.00;;;15.40;99.90;;;;;;6139267;23;20525;-71
2023/05/08 01:31:47;;;;;;;7.23;6.73;;;15.40;99.90;;;;;;6145908;23;20463;-71
2023/05/08 01:34:23;;;;;;;7.37;6.87;;;15.50;99.90;;;;;;6146032;23;20467;-71
2023/05/08 01:36:54;;;;;;;6.80;6.30;;;15.50;99.90;;;;;;6146436;23;20436;-71
2023/05/08 01:39:30;;;;;;;6.30;5.90;;;15.50;99.90;;;;;;6147753;23;20444;-71
2023/05/08 01:42:04;;;;;;;7.27;6.73;;;15.50;99.90;;;;;;6138595;23;20457;-71
2023/05/08 01:44:37;;;;;;;6.73;6.23;;;15.50;99.90;;;;;;6148772;23;20421;-71
2023/05/08 01:47:07;;;;;;;8.57;7.87;;;15.60;99.90;;;;;;6143451;23;21229;-71
2023/05/08 01:49:40;;;;;;;7.43;6.93;;;15.60;99.90;;;;;;6140210;23;20478;-71
2023/05/08 01:52:13;;;;;;;6.80;6.30;;;15.60;99.90;;;;;;6150175;23;20444;-71
2023/05/08 01:54:45;;;;;;;8.00;7.40;;;15.60;99.90;;;;;;6145632;23;20432;-71
2023/05/08 01:57:14;;;;;;;7.50;6.90;;;15.60;99.90;;;;;;6140422;23;20475;-71
2023/05/08 01:59:44;;;;;;;6.93;6.43;;;15.70;99.90;;;;;;6147888;23;20436;-71
2023/05/08 02:02:13;;;;;;;8.10;7.50;;;15.70;99.90;;;;;;6149767;23;20480;-71
2023/05/08 02:04:44;;;;;;;7.27;6.70;;;15.70;99.90;;;;;;6146721;23;20975;-71
2023/05/08 02:07:11;;;;;;;8.30;7.60;;;15.70;99.90;;;;;;6147868;23;20440;-71
2023/05/08 02:09:40;;;;;;;8.03;7.43;;;15.70;99.90;;;;;;6141149;23;20555;-71
2023/05/08 02:12:09;;;;;;;8.30;7.73;;;15.80;99.90;;;;;;6135745;23;20481;-72
2023/05/08 02:14:37;;;;;;;8.73;8.00;;;16.10;99.90;;;;;;6145406;23;20432;-71
2023/05/08 02:17:08;;;;;;;10.67;9.87;;;15.80;99.90;;;;;;6146996;23;20969;-71
2023/05/08 02:19:39;;;;;;;11.03;10.23;;;15.80;99.90;;;;;;6141694;23;20862;-71
2023/05/08 02:22:08;;;;;;;10.87;9.97;;;15.80;99.90;;;;;;6144804;23;20513;-71
2023/05/08 02:24:36;;;;;;;10.73;9.93;;;15.80;99.90;;;;;;6139763;23;20468;-71
2023/05/08 02:27:05;;;;;;;11.73;10.83;;;15.80;99.90;;;;;;6146915;23;20976;-71
2023/05/08 02:29:33;;;;;;;11.50;10.60;;;15.80;99.90;;;;;;6148109;23;21127;-71
2023/05/08 02:32:02;;;;;;;11.97;10.97;;;16.10;99.90;;;;;;6141628;23;20467;-71
2023/05/08 02:34:31;;;;;;;11.40;10.60;;;15.80;99.90;;;;;;6135754;23;20425;-71
2023/05/08 02:36:59;;;;;;;11.80;10.90;;;15.90;99.90;;;;;;6146932;23;20440;-70
2023/05/08 02:39:31;;;;;;;11.27;10.47;;;15.90;99.90;;;;;;6145296;23;20467;-71
2023/05/08 02:41:59;;;;;;;11.40;10.60;;;15.90;99.90;;;;;;6148164;23;20448;-71
2023/05/08 02:44:27;;;;;;;11.07;10.27;;;15.90;99.90;;;;;;6135474;23;20479;-71
2023/05/08 02:46:58;;;;;;;10.87;10.07;;;15.90;99.90;;;;;;6146629;23;20437;-71
2023/05/08 02:49:32;;;;;;;10.93;10.13;;;15.90;99.90;;;;;;6134956;23;20801;-71
2023/05/08 02:52:05;;;;;;;10.47;9.70;;;15.90;99.90;;;;;;6137522;23;20537;-71
2023/05/08 02:54:38;;;;;;;10.27;9.57;;;15.90;99.90;;;;;;6127149;23;20784;-71
2023/05/08 02:57:13;;;;;;;10.40;9.60;;;15.90;99.90;;;;;;6147739;23;20444;-71
2023/05/08 02:59:45;;;;;;;10.17;9.47;;;15.90;99.90;;;;;;6146242;23;20490;-71
2023/05/08 03:02:16;;;;;;;9.10;8.50;;;15.90;99.90;;;;;;6149941;23;20528;-71
2023/05/08 03:04:50;;;;;;;8.50;8.00;;;15.90;99.90;;;;;;6147095;23;20490;-71
2023/05/08 03:07:20;;;;;;;8.57;7.97;;;15.90;99.90;;;;;;6148061;23;20468;-71
2023/05/08 03:09:55;;;;;;;9.03;8.37;;;15.80;99.90;;;;;;6142104;23;20464;-71
2023/05/08 03:12:26;;;;;;;8.60;8.00;;;15.80;99.90;;;;;;6147833;23;21024;-71
2023/05/08 03:15:00;;;;;;;8.67;8.07;;;15.80;99.90;;;;;;6149020;23;20425;-71
2023/05/08 03:17:31;;;;;;;8.97;8.33;;;15.80;99.90;;;;;;6145962;23;20467;-71
2023/05/08 03:20:02;;;;;;;9.87;9.23;;;16.00;99.90;;;;;;6146122;23;20440;-71
2023/05/08 03:22:32;;;;;;;10.40;9.70;;;15.80;99.90;;;;;;6146759;23;20445;-71
2023/05/08 03:25:04;;;;;;;9.70;9.00;;;15.80;99.90;;;;;;6138349;23;20796;-71
2023/05/08 03:27:33;;;;;;;9.57;8.87;;;15.80;99.90;;;;;;6139433;23;20497;-71
2023/05/08 03:30:02;;;;;;;9.50;8.90;;;15.80;99.90;;;;;;6147113;23;20471;-70
2023/05/08 03:32:31;;;;;;;9.93;9.23;;;15.80;99.90;;;;;;6149714;23;20975;-70
2023/05/08 03:35:00;;;;;;;11.50;10.60;;;15.80;99.90;;;;;;6146401;23;20441;-71
2023/05/08 03:37:28;;;;;;;10.87;10.17;;;15.80;99.90;;;;;;6140315;23;20436;-70
2023/05/08 03:39:56;;;;;;;11.47;10.67;;;16.10;99.90;;;;;;6147055;23;20458;-70
2023/05/08 03:42:26;;;;;;;12.87;11.90;;;15.80;99.90;;;;;;6149208;23;20455;-70
2023/05/08 03:44:54;;;;;;;12.10;11.20;;;15.40;99.90;;;;;;6146114;23;20437;-70
2023/05/08 03:47:23;;;;;;;12.57;11.67;;;15.80;99.90;;;;;;6134689;23;20444;-71
2023/05/08 03:49:50;;;;;;;13.33;12.37;;;15.80;99.90;;;;;;6143968;23;20835;-74
2023/05/08 03:52:17;;;;;;;12.60;11.60;;;15.80;99.90;;;;;;6137161;23;20467;-71
2023/05/08 03:54:44;;;;;;;12.87;11.97;;;15.90;99.90;;;;;;6145985;23;20443;-72
2023/05/08 03:57:12;;;;;;;13.27;12.27;;;15.80;99.90;;;;;;6146577;23;20441;-72
2023/05/08 03:59:46;;;;;;;13.43;12.43;;;15.80;99.90;;;;;;6145161;23;20433;-88
2023/05/08 04:02:21;;;;;;;13.00;12.10;;;15.80;99.90;;;;;;6149472;23;20573;-87
2023/05/08 04:04:52;;;;;;;12.40;11.40;;;15.80;99.90;;;;;;6148721;23;20471;-86
2023/05/08 04:07:24;;;;;;;13.63;12.53;;;15.80;99.90;;;;;;6149608;23;20436;-87
2023/05/08 04:09:59;;;;;;;12.00;11.10;;;15.80;99.90;;;;;;6142681;23;20472;-89
2023/05/08 04:12:36;;;;;;;12.50;11.60;;;15.80;99.90;;;;;;6155248;23;20432;-82
2023/05/08 04:15:08;;;;;;;10.30;9.60;;;15.90;99.90;;;;;;6150889;23;20511;-84
2023/05/08 04:17:42;;;;;;;10.63;9.87;;;15.90;99.90;;;;;;6155180;23;20846;-84
2023/05/08 04:20:14;;;;;;;10.67;9.87;;;15.90;99.90;;;;;;6148384;23;20483;-75
2023/05/08 04:22:43;;;;;;;10.63;9.73;;;15.90;99.90;;;;;;6143618;23;20444;-88
2023/05/08 04:25:12;;;;;;;9.67;8.97;;;15.90;99.90;;;;;;6147140;23;20483;-84
2023/05/08 04:27:39;;;;;;;10.67;9.87;;;15.90;99.90;;;;;;6147125;23;20538;-85
2023/05/08 04:30:10;;;;;;;9.27;8.67;;;15.90;99.90;;;;;;6139129;23;20549;-86
2023/05/08 04:32:38;;;;;;;8.60;7.93;;;15.90;99.90;;;;;;6151703;23;20996;-85
2023/05/08 04:35:06;;;;;;;9.17;8.30;;;15.90;99.90;;;;;;6150219;23;20436;-85
2023/05/08 04:37:34;;;;;;;8.20;7.60;;;15.90;99.90;;;;;;6146534;23;20528;-86
2023/05/08 04:40:02;;;;;;;7.90;7.40;;;15.90;99.90;;;;;;6137332;23;20429;-89
2023/05/08 04:42:29;;;;;;;8.20;7.60;;;15.90;99.90;;;;;;6122233;23;20428;-85
2023/05/08 04:44:57;;;;;;;9.70;9.00;;;15.90;99.90;;;;;;6139951;23;20917;-86
2023/05/08 04:47:25;;;;;;;8.23;7.60;;;15.90;99.90;;;;;;6141396;23;20424;-88
2023/05/08 04:49:52;;;;;;;8.67;8.00;;;15.90;99.90;;;;;;6139813;23;20464;-85
2023/05/08 04:52:19;;;;;;;8.97;8.37;;;15.90;99.90;;;;;;6142666;23;20417;-85
2023/05/08 04:54:46;;;;;;;9.37;8.67;;;15.90;99.90;;;;;;6145134;23;20780;-78
2023/05/08 04:57:14;;;;;;;9.70;9.00;;;15.90;99.90;;;;;;6142266;23;20452;-82
2023/05/08 04:59:42;;;;;;;9.43;8.83;;;15.90;99.90;;;;;;6144912;23;20459;-87
2023/05/08 05:02:09;;;;;;;8.30;7.60;;;15.90;99.90;;;;;;6139813;23;20460;-82
2023/05/08 05:04:38;;;;;;;8.27;7.67;;;15.90;99.90;;;;;;6135755;23;20440;-84
2023/05/08 05:07:05;;;;;;;8.13;7.53;;;15.90;99.90;;;;;;6140750;23;20436;-84
2023/05/08 05:09:35;;;;;;;8.10;7.60;;;15.90;99.90;;;;;;6143229;23;21042;-81
2023/05/08 05:12:02;;;;;;;7.60;7.07;;;15.90;99.90;;;;;;6132596;23;21869;-93
2023/05/08 05:14:30;;;;;;;7.50;7.00;;;16.00;99.90;;;;;;6130484;23;20519;-92
2023/05/08 05:16:57;;;;;;;8.23;7.73;;;16.00;99.90;;;;;;6134252;23;20437;-91
2023/05/08 05:19:24;;;;;;;8.10;7.60;;;16.00;99.90;;;;;;6138885;23;20843;-92
2023/05/08 05:21:53;;;;;;;8.40;7.83;;;16.00;99.90;;;;;;6148542;23;20452;-92
2023/05/08 05:24:20;;;;;;;8.73;8.13;;;16.00;99.90;;;;;;6137324;23;20436;-92
2023/05/08 05:26:47;;;;;;;8.77;8.27;;;16.00;99.90;;;;;;6141205;23;20456;-92
2023/05/08 05:29:14;;;;;;;8.17;7.60;;;16.00;99.90;;;;;;6144855;23;20488;-92
2023/05/08 05:31:41;;;;;;;8.80;8.20;;;16.00;99.90;;;;;;6150653;23;21156;-92
2023/05/08 05:34:08;;;;;;;8.70;8.10;;;16.10;99.90;;;;;;6143180;23;20434;-91
2023/05/08 05:36:36;;;;;;;8.37;7.87;;;16.00;99.90;;;;;;6128737;23;21249;-91
2023/05/08 05:39:04;;;;;;;8.43;7.70;;;16.10;99.90;;;;;;6141591;23;20436;-89
2023/05/08 05:41:31;;;;;;;8.47;7.77;;;16.10;99.90;;;;;;6143458;23;20523;-77
2023/05/08 05:43:58;;;;;;;8.30;7.80;;;16.20;99.90;;;;;;6132855;23;20447;-76
2023/05/08 05:46:31;;;;;;;7.70;7.20;;;16.10;99.90;;;;;;6129487;23;20444;-76
2023/05/08 05:48:58;;;;;;;7.87;7.37;;;16.10;99.90;;;;;;6139427;23;20465;-79
2023/05/08 05:51:26;;;;;;;7.83;7.23;;;16.10;99.90;;;;;;6137215;23;20535;-77
2023/05/08 05:53:53;;;;;;;8.67;8.07;;;16.20;99.90;;;;;;6135536;23;20425;-77
2023/05/08 05:56:22;;;;;;;7.90;7.30;;;16.20;99.90;;;;;;6144019;23;20441;-77
2023/05/08 05:58:49;;;;;;;7.83;7.33;;;16.20;99.90;;;;;;6143262;23;20479;-77
2023/05/08 06:01:16;;;;;;;8.57;7.97;;;16.30;99.90;;;;;;6135323;23;20460;-77
2023/05/08 06:03:43;;;;;;;7.73;7.23;;;16.30;99.90;;;;;;6140975;23;20441;-80
2023/05/08 06:06:11;;;;;;;7.60;7.10;;;16.30;99.90;;;;;;6137247;23;20439;-80
2023/05/08 06:08:38;;;;;;;8.17;7.53;;;16.40;99.90;;;;;;6127515;23;20425;-76
2023/05/08 06:11:05;;;;;;;7.93;7.43;;;16.40;99.90;;;;;;6141217;23;20476;-76
2023/05/08 06:13:34;;;;;;;7.90;7.33;;;16.40;99.90;;;;;;6138731;23;20517;-77
2023/05/08 06:16:01;;;;;;;8.57;7.97;;;16.40;99.90;;;;;;6136711;23;20433;-77
2023/05/08 06:18:28;;;;;;;7.97;7.37;;;16.40;99.90;;;;;;6132771;23;20516;-76
2023/05/08 06:20:57;;;;;;;8.80;8.20;;;16.50;99.90;;;;;;6127403;23;20449;-75
2023/05/08 06:23:24;;;;;;;8.90;8.17;;;16.50;99.90;;;;;;6139951;23;20915;-76
2023/05/08 06:25:51;;;;;;;8.13;7.53;;;16.50;99.90;;;;;;6133682;23;20479;-77
2023/05/08 06:28:18;;;;;;;8.50;7.90;;;16.50;99.90;;;;;;6138515;23;20440;-77
2023/05/08 06:30:47;;;;;;;7.70;7.20;;;16.50;99.90;;;;;;6138274;23;20480;-77
2023/05/08 06:33:14;;;;;;;9.37;8.67;;;16.50;99.90;;;;;;6139597;23;20445;-77
2023/05/08 06:35:41;;;;;;;8.57;7.90;;;16.50;99.90;;;;;;6135381;23;20797;-76
2023/05/08 06:38:08;;;;;;;8.10;7.60;;;16.50;99.90;;;;;;6137213;23;20975;-76
2023/05/08 06:40:35;;;;;;;7.90;7.40;;;16.50;99.90;;;;;;6142775;23;20504;-76
2023/05/08 06:43:02;;;;;;;7.93;7.33;;;16.50;99.90;;;;;;6138335;23;20538;-76
2023/05/08 06:45:29;;;;;;;8.30;7.80;;;16.50;99.90;;;;;;6130016;23;20440;-76
2023/05/08 06:47:58;;;;;;;8.33;7.83;;;16.50;99.90;;;;;;6138028;23;20441;-77
2023/05/08 06:50:25;;;;;;;8.80;8.20;;;16.50;99.90;;;;;;6142475;23;20472;-76
2023/05/08 06:52:52;;;;;;;8.50;7.90;;;16.50;99.90;;;;;;6134901;23;20476;-76
2023/05/08 06:55:20;;;;;;;8.40;7.80;;;16.60;99.90;;;;;;6133361;23;20440;-76
2023/05/08 06:57:47;;;;;;;9.03;8.40;;;16.50;99.90;;;;;;6128513;23;20433;-77
2023/05/08 07:00:15;;;;;;;8.33;7.83;;;16.60;99.90;;;;;;6125089;23;20533;-76
2023/05/08 07:02:42;;;;;;;8.83;8.23;;;16.60;99.90;;;;;;6130828;23;20517;-77
2023/05/08 07:05:11;;;;;;;9.53;8.87;;;16.60;99.90;;;;;;6125577;23;20494;-78
2023/05/08 07:07:38;;;;;;;8.93;8.20;;;16.60;99.90;;;;;;6133330;23;20830;-77
2023/05/08 07:10:06;;;;;;;8.70;8.10;;;16.70;99.90;;;;;;6131054;23;20473;-76
2023/05/08 07:12:33;;;;;;;9.00;8.40;;;16.70;99.90;;;;;;6132781;23;20433;-76
2023/05/08 07:15:00;;;;;;;8.90;8.17;;;16.70;99.90;;;;;;6133598;23;20468;-76
2023/05/08 07:17:29;;;;;;;8.73;8.13;;;16.70;99.90;;;;;;6126870;23;20445;-76
2023/05/08 07:19:56;;;;;;;8.60;7.70;;;16.70;99.90;;;;;;6131952;23;20468;-76
2023/05/08 07:22:24;;;;;;;8.53;7.93;;;16.80;99.90;;;;;;6130799;23;23464;-76
2023/05/08 07:24:51;;;;;;;7.90;7.40;;;16.70;99.90;;;;;;6118900;23;20446;-76
2023/05/08 07:27:19;;;;;;;8.33;7.63;;;16.80;99.90;;;;;;6116884;23;20435;-76
2023/05/08 07:29:46;;;;;;;7.10;6.60;;;16.70;99.90;;;;;;6118768;23;20436;-75
2023/05/08 07:32:14;;;;;;;8.00;7.50;;;16.70;99.90;;;;;;6120305;23;20519;-76
2023/05/08 07:34:42;;;;;;;8.93;8.27;;;16.70;99.90;;;;;;6119983;23;20429;-76
2023/05/08 07:37:09;;;;;;;8.30;7.70;;;16.70;99.90;;;;;;6124944;23;20862;-76
2023/05/08 07:39:38;;;;;;;10.47;9.70;;;16.70;99.90;;;;;;6116873;23;21090;-76
2023/05/08 07:42:05;;;;;;;8.30;7.80;;;16.70;99.90;;;;;;6131844;23;20788;-75
2023/05/08 07:44:32;;;;;;;9.47;8.87;;;16.90;99.90;;;;;;6134690;23;20455;-77
2023/05/08 07:46:59;;;;;;;9.53;8.83;;;16.80;99.90;;;;;;6140121;23;20417;-78
2023/05/08 07:49:26;;;;;;;9.27;8.67;;;16.90;99.90;;;;;;6136055;23;20984;-78
2023/05/08 07:51:53;;;;;;;9.50;8.80;;;16.90;99.90;;;;;;6143230;23;20471;-78
2023/05/08 07:54:20;;;;;;;8.87;8.27;;;17.00;99.90;;;;;;6142019;23;20505;-76
2023/05/08 07:56:48;;;;;;;8.43;7.80;;;17.10;99.90;;;;;;6141239;23;20428;-82
2023/05/08 07:59:15;;;;;;;10.00;9.03;;;17.00;99.90;;;;;;6132945;23;21244;-77
2023/05/08 08:01:46;;;;;;;14.27;9.57;;;17.00;99.90;;;;;;6141981;23;21028;-76
2023/05/08 08:04:13;;;;;;;9.37;8.67;;;17.00;99.90;;;;;;6131017;23;20442;-77
2023/05/08 08:06:40;;;;;;;9.43;8.73;;;17.00;99.90;;;;;;6143498;23;20531;-76
2023/05/08 08:09:08;;;;;;;8.50;7.90;;;17.10;99.90;;;;;;6138040;23;20437;-76
2023/05/08 08:11:34;;;;;;;8.63;7.93;;;17.20;99.90;;;;;;6147036;23;20491;-76
2023/05/08 08:14:03;;;;;;;8.77;8.13;;;17.40;99.90;;;;;;6142092;23;20439;-76
2023/05/08 08:16:30;;;;;;;7.43;6.93;;;17.50;99.90;;;;;;6143835;23;20462;-76
2023/05/08 08:18:58;;;;;;;8.23;7.63;;;17.60;99.90;;;;;;6133625;23;20848;-77
2023/05/08 08:21:26;;;;;;;8.40;7.80;;;17.80;99.90;;;;;;6139715;23;20460;-77
2023/05/08 08:23:55;;;;;;;8.60;8.00;;;18.00;99.90;;;;;;6133523;23;21503;-76
2023/05/08 08:26:24;;;;;;;6.53;6.03;;;18.20;99.90;;;;;;6119298;23;20533;-76
2023/05/08 08:28:51;;;;;;;6.40;6.00;;;18.30;99.90;;;;;;6133461;23;20476;-75
2023/05/08 08:31:19;;;;;;;8.17;7.40;;;18.40;99.90;;;;;;6136840;23;20866;-77
2023/05/08 08:33:46;;;;;;;7.33;6.73;;;18.40;99.90;;;;;;6139117;23;21320;-79
2023/05/08 08:36:14;;;;;;;9.13;7.40;;;18.40;99.90;;;;;;6134898;23;20490;-78
2023/05/08 08:38:41;;;;;;;8.73;7.47;;;18.30;99.90;;;;;;6127635;23;20528;-76
2023/05/08 08:41:08;;;;;;;8.10;7.30;;;18.30;99.90;;;;;;6123665;23;20456;-76
2023/05/08 08:43:38;;;;;;;7.30;6.73;;;18.20;99.90;;;;;;6132480;23;20519;-76
2023/05/08 08:46:11;;;;;;;7.33;6.83;;;18.00;99.90;;;;;;6140616;23;20441;-76
2023/05/08 08:48:44;;;;;;;7.43;6.83;;;17.80;99.90;;;;;;6131530;23;22094;-76
2023/05/08 08:51:18;;;;;;;8.10;7.50;;;17.80;99.90;;;;;;6141060;23;20469;-76
2023/05/08 08:53:49;;;;;;;7.67;7.07;;;17.80;99.90;;;;;;6132764;23;20433;-77
2023/05/08 08:56:17;;;;;;;7.97;7.37;;;17.80;99.90;;;;;;6132191;23;20928;-75
2023/05/08 08:58:49;;;;;;;8.27;7.67;;;17.70;99.90;;;;;;6132129;23;20435;-75
2023/05/08 09:01:19;;;;;;;9.70;8.90;;;17.70;99.90;;;;;;6138883;23;20532;-76
2023/05/08 09:03:48;;;;;;;9.60;8.80;;;17.80;99.90;;;;;;6135123;23;20986;-75
2023/05/08 09:06:15;;;;;;;8.17;7.47;;;17.80;99.90;;;;;;6128684;23;20485;-75
2023/05/08 09:08:42;;;;;;;8.60;7.80;;;18.00;99.90;;;;;;6132636;23;20515;-75
2023/05/08 09:11:09;;;;;;;9.80;8.00;;;18.10;99.90;;;;;;6131685;23;20473;-75
2023/05/08 09:13:36;;;;;;;13.17;8.50;;;18.30;99.90;;;;;;6126877;23;20465;-74
2023/05/08 09:16:04;;;;;;;9.57;8.77;;;18.40;99.90;;;;;;6129365;23;20433;-75
2023/05/08 09:18:31;;;;;;;12.20;10.20;;;18.30;99.90;;;;;;6132130;23;21073;-74
2023/05/08 09:21:00;;;;;;;11.73;10.20;;;18.30;99.90;;;;;;6133360;23;20480;-75
2023/05/08 09:23:27;;;;;;;10.13;9.23;;;18.20;99.90;;;;;;6137304;23;20846;-75
2023/05/08 09:25:55;;;;;;;10.00;9.10;;;18.20;99.90;;;;;;6133296;23;20830;-75
2023/05/08 09:28:24;;;;;;;9.70;9.00;;;18.20;99.90;;;;;;6127385;23;20445;-75
2023/05/08 09:30:53;;;;;;;8.43;7.70;;;18.30;99.90;;;;;;6131117;23;20478;-74
2023/05/08 09:33:22;;;;;;;8.43;7.83;;;18.40;99.90;;;;;;6135630;23;20433;-74
2023/05/08 09:35:49;;;;;;;9.00;8.30;;;18.40;99.90;;;;;;6113315;23;20515;-74
2023/05/08 09:38:34;;;;;;;9.37;8.57;;;18.40;99.90;;;;;;6140320;23;20460;-74
2023/05/08 09:41:09;;;;;;;9.43;8.07;;;18.40;99.90;;;;;;6142053;23;20567;-75
2023/05/08 09:43:36;;;;;;;10.03;9.07;;;18.40;99.90;;;;;;6138820;23;20416;-76
2023/05/08 09:46:27;;;;;;;9.00;8.07;;;18.50;99.90;;;;;;6131388;23;20783;-74
2023/05/08 09:48:56;;;;;;;9.07;8.27;;;18.40;99.90;;;;;;6105546;23;20436;-75
2023/05/08 09:51:23;;;;;;;9.53;8.60;;;18.40;99.90;;;;;;6138644;23;20460;-75
2023/05/08 09:53:52;;;;;;;9.47;8.57;;;18.30;99.90;;;;;;6124192;23;20493;-74
2023/05/08 09:56:31;;;;;;;10.27;9.37;;;18.20;99.90;;;;;;6131299;23;20468;-74
2023/05/08 09:58:59;;;;;;;10.30;9.40;;;18.10;99.90;;;;;;6137041;23;20438;-74
2023/05/08 10:01:31;;;;;;;10.30;9.50;;;18.00;99.90;;;;;;6141089;23;20459;-74
2023/05/08 10:03:59;;;;;;;10.87;10.03;;;18.00;99.90;;;;;;6094289;23;1037635;-73
2023/05/08 10:06:27;;;;;;;10.27;9.57;;;18.00;99.90;;;;;;6132028;23;20195;-75
2023/05/08 10:09:10;;;;;;;9.67;8.87;;;18.00;99.90;;;;;;6140449;23;20432;-75
2023/05/08 10:11:39;;;;;;;9.80;9.10;;;18.10;99.90;;;;;;6137303;23;20456;-74
2023/05/08 10:14:05;;;;;;;9.63;8.90;;;18.20;99.90;;;;;;6140456;23;20780;-75
2023/05/08 10:16:38;;;;;;;10.60;9.70;;;18.30;99.90;;;;;;6141952;23;21008;-75
2023/05/08 10:19:13;;;;;;;9.73;9.07;;;18.40;99.90;;;;;;6137815;23;20500;-75
2023/05/08 10:21:43;;;;;;;11.03;10.13;;;18.50;99.90;;;;;;6121997;23;20812;-75
2023/05/08 10:24:16;;;;;;;11.10;10.17;;;18.60;99.90;;;;;;6139532;23;20481;-75
2023/05/08 10:26:48;;;;;;;10.37;9.53;;;18.60;99.90;;;;;;6137146;23;20424;-75
2023/05/08 10:29:21;;;;;;;9.80;9.10;;;18.60;99.90;;;;;;6138847;23;20924;-75
2023/05/08 10:31:49;;;;;;;10.80;9.87;;;18.50;99.90;;;;;;6141633;23;20866;-74
2023/05/08 10:34:22;;;;;;;9.60;8.90;;;18.40;99.90;;;;;;6137489;23;20440;-74
2023/05/08 10:36:51;;;;;;;9.87;9.17;;;18.20;99.90;;;;;;6145041;23;20439;-75
2023/05/08 10:39:21;;;;;;;14.53;8.90;;;18.20;99.90;;;;;;6128421;23;20471;-71
2023/05/08 10:41:49;;;;;;;10.27;9.47;;;18.20;99.90;;;;;;6134516;23;20608;-82
2023/05/08 10:44:16;;;;;;;10.03;8.10;;;18.30;99.90;;;;;;6129568;23;20436;-82
2023/05/08 10:46:52;;;;;;;11.00;10.20;;;18.40;99.90;;;;;;6140386;23;20529;-71
2023/05/08 10:49:27;;;;;;;8.77;8.00;;;18.80;99.90;;;;;;6119913;23;20437;-71
2023/05/08 10:52:06;;;;;;;10.77;9.97;;;18.70;99.90;;;;;;6128609;23;20473;-77
2023/05/08 10:54:46;;;;;;;10.33;9.50;;;18.80;99.90;;;;;;6145568;23;20428;-75
2023/05/08 10:57:15;;;;;;;9.37;8.67;;;18.90;99.90;;;;;;6141262;23;20460;-75
2023/05/08 10:59:46;;;;;;;8.40;7.80;;;18.90;99.90;;;;;;6131077;23;20464;-75
2023/05/08 11:02:14;;;;;;;9.47;8.77;;;18.90;99.90;;;;;;6141297;23;20505;-75
2023/05/08 11:04:41;;;;;;;10.33;9.53;;;19.10;99.90;;;;;;6141494;23;20447;-75
2023/05/08 11:07:08;;;;;;;8.30;7.70;;;19.30;99.90;;;;;;6140907;23;20838;-75
2023/05/08 11:09:48;;;;;;;8.30;7.60;;;19.50;99.90;;;;;;6143279;23;20466;-76
2023/05/08 11:12:22;;;;;;;9.30;8.40;;;19.90;99.90;;;;;;6133569;23;21121;-76
2023/05/08 11:14:57;;;;;;;9.60;8.90;;;20.30;99.90;;;;;;6145712;23;20444;-75
2023/05/08 11:17:25;;;;;;;9.20;8.60;;;20.60;99.90;;;;;;6133773;23;20523;-76
2023/05/08 11:19:57;;;;;;;9.00;8.20;;;20.60;99.90;;;;;;6131080;23;21041;-76
2023/05/08 11:22:27;;;;;;;8.70;8.00;;;20.60;99.90;;;;;;6136250;23;20439;-75
2023/05/08 11:24:59;;;;;;;8.50;7.90;;;20.60;99.90;;;;;;6139991;23;20443;-76
2023/05/08 11:27:37;;;;;;;7.80;7.20;;;20.80;99.90;;;;;;6141195;23;20499;-75
2023/05/08 11:30:34;;;;;;;8.00;7.40;;;20.90;99.90;;;;;;6143841;23;20524;-76
2023/05/08 11:33:30;;;;;;;8.60;8.00;;;20.80;99.90;;;;;;6138129;23;20500;-75
2023/05/08 11:35:58;;;;;;;7.53;7.03;;;20.70;99.90;;;;;;6126271;23;20441;-76
2023/05/08 11:38:28;;;;;;;7.70;7.20;;;20.90;99.90;;;;;;6135002;23;20433;-76
2023/05/08 11:40:59;;;;;;;8.80;8.10;;;21.30;99.90;;;;;;6136905;23;20471;-76
2023/05/08 11:43:35;;;;;;;8.53;7.73;;;21.50;99.90;;;;;;6132687;23;20528;-75
2023/05/08 11:46:04;;;;;;;10.03;8.27;;;21.50;99.90;;;;;;6124591;23;20517;-75
2023/05/08 11:48:32;;;;;;;8.57;7.50;;;21.90;99.90;;;;;;6121219;23;20437;-76
2023/05/08 11:51:00;;;;;;;8.93;8.23;;;22.60;99.90;;;;;;6116006;23;20456;-77
2023/05/08 11:53:27;;;;;;;8.70;7.90;;;23.00;99.90;;;;;;6134803;23;20527;-76
2023/05/08 11:55:55;;;;;;;13.70;9.07;;;22.90;99.90;;;;;;6139600;23;20518;-77
2023/05/08 11:58:23;;;;;;;26.07;10.97;;;22.80;99.90;;;;;;6138708;23;20512;-75
2023/05/08 12:00:50;;;;;;;9.33;7.67;;;23.00;99.90;;;;;;6123167;23;20461;-76
2023/05/08 12:03:18;;;;;;;7.90;7.30;;;23.40;99.90;;;;;;6132409;23;20442;-75
2023/05/08 12:05:46;;;;;;;8.63;8.00;;;23.70;99.90;;;;;;6138853;23;20451;-75
2023/05/08 12:08:14;;;;;;;7.63;6.97;;;24.00;99.90;;;;;;6139172;23;20432;-76
2023/05/08 12:10:50;;;;;;;9.23;8.63;;;24.00;99.90;;;;;;6141285;23;20463;-76
2023/05/08 12:13:18;;;;;;;8.77;8.07;;;24.20;99.90;;;;;;6137814;23;20498;-76
2023/05/08 12:15:47;;;;;;;9.47;8.87;;;24.80;99.90;;;;;;6129849;23;20426;-76
2023/05/08 12:18:15;;;;;;;9.63;8.93;;;25.50;99.90;;;;;;6139984;23;21499;-76
2023/05/08 12:20:42;;;;;;;10.40;9.60;;;26.00;99.90;;;;;;6135504;23;20481;-76
2023/05/08 12:23:10;;;;;;;8.40;7.80;;;26.10;99.90;;;;;;6130325;23;20445;-76
2023/05/08 12:25:38;;;;;;;9.83;9.13;;;26.00;99.90;;;;;;6142165;23;20923;-75
2023/05/08 12:28:07;;;;;;;11.27;10.47;;;25.80;99.90;;;;;;6134808;23;21214;-76
2023/05/08 12:30:35;;;;;;;9.57;8.93;;;25.50;99.90;;;;;;6128445;23;20471;-75
2023/05/08 12:33:04;;;;;;;11.30;10.50;;;25.10;99.90;;;;;;6137742;23;20468;-75
2023/05/08 12:35:32;;;;;;;12.20;11.30;;;24.60;99.90;;;;;;6133373;23;20444;-76
2023/05/08 12:38:03;;;;;;;12.00;11.10;;;24.10;99.90;;;;;;6130960;23;20444;-75
2023/05/08 12:40:32;;;;;;;12.40;11.47;;;23.50;99.90;;;;;;6122451;23;21069;-75
2023/05/08 12:43:01;;;;;;;12.83;11.83;;;22.90;99.90;;;;;;6133559;23;20539;-75
2023/05/08 12:45:30;;;;;;;17.80;16.50;;;22.30;99.90;;;;;;6130210;23;20448;-75
2023/05/08 12:48:00;;;;;;;17.97;16.67;;;21.70;99.90;;;;;;6128689;23;20471;-75
2023/05/08 12:50:31;;;;;;;16.90;15.63;;;21.20;99.90;;;;;;6140080;23;20460;-75
2023/05/08 12:53:03;;;;;;;18.97;17.47;;;20.80;99.90;;;;;;6134849;23;20478;-75
2023/05/08 12:55:31;;;;;;;21.07;19.47;;;20.40;99.90;;;;;;6132768;23;21697;-74